Time;durP1;ratioP1;P1;durP2;ratioP2;P2;SDS_P1;SDS_P2;PMS_P1;PMS_P2;Temp;Humidity;BMP_temperature;BMP_pressure;BME280_temperature;BME280_humidity;BME280_pressure;Samples;Min_cycle;Max_cycle;Signal;HPM_P1;HPM_P2
2023/03/11 00:01:00;;;;;;;69.47;65.82;;;;;;;;;;5075300;28;20206;-77
2023/03/11 00:03:28;;;;;;;76.03;72.00;;;;;;;;;;5074358;28;20674;-78
2023/03/11 00:05:57;;;;;;;77.20;73.10;;;;;;;;;;5074216;28;20219;-78
2023/03/11 00:08:25;;;;;;;74.60;70.60;;;;;;;;;;5074802;28;20215;-78
2023/03/11 00:10:53;;;;;;;73.78;69.68;;;;;;;;;;5074966;28;20204;-78
2023/03/11 00:13:21;;;;;;;71.88;68.00;;;;;;;;;;5074389;28;20299;-77
2023/03/11 00:15:49;;;;;;;71.40;67.80;;;;;;;;;;5073750;28;20742;-77
2023/03/11 00:18:16;;;;;;;74.13;69.65;;;;;;;;;;5073656;28;20664;-77
2023/03/11 00:20:44;;;;;;;73.22;69.57;;;;;;;;;;5074521;28;20247;-77
2023/03/11 00:23:12;;;;;;;75.43;71.72;;;;;;;;;;5074191;28;20207;-77
2023/03/11 00:25:41;;;;;;;67.60;64.20;;;;;;;;;;5074486;28;20277;-78
2023/03/11 00:28:09;;;;;;;68.10;64.60;;;;;;;;;;5074230;28;20203;-78
2023/03/11 00:30:36;;;;;;;67.53;64.03;;;;;;;;;;5074773;28;20250;-77
2023/03/11 00:33:03;;;;;;;63.40;60.20;;;;;;;;;;5074009;28;20571;-78
2023/03/11 00:35:32;;;;;;;65.53;62.22;;;;;;;;;;5073944;28;20704;-78
2023/03/11 00:38:00;;;;;;;67.22;63.83;;;;;;;;;;5074550;28;20204;-77
2023/03/11 00:40:29;;;;;;;68.57;65.07;;;;;;;;;;5073794;28;20257;-78
2023/03/11 00:42:58;;;;;;;65.40;62.05;;;;;;;;;;5074005;28;20206;-78
2023/03/11 00:45:25;;;;;;;68.35;64.85;;;;;;;;;;5074250;28;20221;-77
2023/03/11 00:47:53;;;;;;;66.38;62.88;;;;;;;;;;5074383;28;20301;-77
2023/03/11 00:50:21;;;;;;;69.50;65.72;;;;;;;;;;5073641;28;20215;-78
2023/03/11 00:52:49;;;;;;;67.63;64.05;;;;;;;;;;5073786;28;20256;-78
2023/03/11 00:55:17;;;;;;;67.68;63.92;;;;;;;;;;5073757;28;20546;-78
2023/03/11 00:57:44;;;;;;;65.70;62.30;;;;;;;;;;5073867;28;20671;-77
2023/03/11 01:00:16;;;;;;;67.18;63.15;;;;;;;;;;5074117;28;20206;-78
2023/03/11 01:02:43;;;;;;;65.20;61.67;;;;;;;;;;5073273;28;20235;-78
2023/03/11 01:05:10;;;;;;;66.70;63.20;;;;;;;;;;5073320;28;20212;-79
2023/03/11 01:07:37;;;;;;;67.40;63.90;;;;;;;;;;5074206;28;20273;-78
2023/03/11 01:10:05;;;;;;;69.80;66.18;;;;;;;;;;5073295;28;20238;-78
2023/03/11 01:12:32;;;;;;;69.13;65.40;;;;;;;;;;5072982;28;20211;-77
2023/03/11 01:14:59;;;;;;;64.85;61.35;;;;;;;;;;5073082;28;20207;-78
2023/03/11 01:17:27;;;;;;;66.95;63.25;;;;;;;;;;5073600;28;20623;-77
2023/03/11 01:19:54;;;;;;;70.82;66.95;;;;;;;;;;5074676;28;20268;-78
2023/03/11 01:22:21;;;;;;;69.20;65.20;;;;;;;;;;5074433;28;20207;-77
2023/03/11 01:24:48;;;;;;;69.25;65.32;;;;;;;;;;5073688;28;20218;-78
2023/03/11 01:27:15;;;;;;;66.30;62.80;;;;;;;;;;5072905;28;20274;-77
2023/03/11 01:29:42;;;;;;;66.80;62.60;;;;;;;;;;5073473;28;20204;-78
2023/03/11 01:32:10;;;;;;;63.97;60.67;;;;;;;;;;5073099;28;20619;-78
2023/03/11 01:34:39;;;;;;;62.70;59.38;;;;;;;;;;5073770;28;20203;-78
2023/03/11 01:37:06;;;;;;;65.60;62.22;;;;;;;;;;5073574;28;20227;-78
2023/03/11 01:39:33;;;;;;;68.55;64.25;;;;;;;;;;5073810;28;20200;-78
2023/03/11 01:41:59;;;;;;;61.67;58.05;;;;;;;;;;5072540;28;20217;-78
2023/03/11 01:44:27;;;;;;;65.90;61.92;;;;;;;;;;5073513;28;20639;-78
2023/03/11 01:47:12;;;;;;;63.47;60.08;;;;;;;;;;5073559;28;20250;-77
2023/03/11 01:49:41;;;;;;;66.55;62.88;;;;;;;;;;5073557;28;20617;-78
2023/03/11 01:52:10;;;;;;;64.00;60.25;;;;;;;;;;5072882;28;20208;-78
2023/03/11 01:54:38;;;;;;;66.72;63.28;;;;;;;;;;5073027;28;20203;-78
2023/03/11 01:57:07;;;;;;;62.33;59.13;;;;;;;;;;5073411;28;20584;-78
2023/03/11 01:59:36;;;;;;;66.57;62.38;;;;;;;;;;5073493;28;20208;-77
2023/03/11 02:02:07;;;;;;;62.78;59.55;;;;;;;;;;5072775;28;20282;-78
2023/03/11 02:04:35;;;;;;;63.53;60.00;;;;;;;;;;5073274;28;20654;-78
2023/03/11 02:07:04;;;;;;;66.38;62.25;;;;;;;;;;5072805;28;20228;-78
2023/03/11 02:09:31;;;;;;;64.10;60.60;;;;;;;;;;5073417;28;20204;-78
2023/03/11 02:11:58;;;;;;;62.42;59.08;;;;;;;;;;5072561;28;20225;-77
2023/03/11 02:14:26;;;;;;;64.80;61.05;;;;;;;;;;5073351;28;20260;-77
2023/03/11 02:16:53;;;;;;;65.35;61.55;;;;;;;;;;5072434;28;20280;-78
2023/03/11 02:19:24;;;;;;;64.13;60.95;;;;;;;;;;5073381;28;20225;-78
2023/03/11 02:21:52;;;;;;;71.30;67.72;;;;;;;;;;5072484;28;20187;-78
2023/03/11 02:24:23;;;;;;;69.80;65.97;;;;;;;;;;5073087;28;20204;-77
2023/03/11 02:26:54;;;;;;;65.38;62.10;;;;;;;;;;5072855;28;20306;-78
2023/03/11 02:29:21;;;;;;;71.50;67.03;;;;;;;;;;5073249;28;20183;-78
2023/03/11 02:31:49;;;;;;;70.15;66.13;;;;;;;;;;5072391;28;20202;-78
2023/03/11 02:34:18;;;;;;;71.15;67.55;;;;;;;;;;5072335;28;20202;-77
2023/03/11 02:36:45;;;;;;;72.82;68.53;;;;;;;;;;5072719;28;20230;-77
2023/03/11 02:39:12;;;;;;;68.45;65.05;;;;;;;;;;5073129;28;20567;-77
2023/03/11 02:41:40;;;;;;;69.05;65.15;;;;;;;;;;5074984;28;20203;-78
2023/03/11 02:44:10;;;;;;;69.88;66.03;;;;;;;;;;5076816;28;20210;-78
2023/03/11 02:46:40;;;;;;;69.38;65.30;;;;;;;;;;5076754;28;20222;-77
2023/03/11 02:49:07;;;;;;;69.82;66.13;;;;;;;;;;5076739;28;20201;-77
2023/03/11 02:51:34;;;;;;;70.20;66.38;;;;;;;;;;5075515;28;20692;-78
2023/03/11 02:54:03;;;;;;;69.50;65.82;;;;;;;;;;5076168;28;20658;-77
2023/03/11 02:56:30;;;;;;;68.63;64.82;;;;;;;;;;5075910;28;20681;-77
2023/03/11 02:58:57;;;;;;;69.13;65.68;;;;;;;;;;5076440;28;20217;-77
2023/03/11 03:01:26;;;;;;;71.97;67.10;;;;;;;;;;5075085;28;20203;-78
2023/03/11 03:03:53;;;;;;;67.25;63.75;;;;;;;;;;5076316;28;20206;-77
2023/03/11 03:06:20;;;;;;;66.35;61.80;;;;;;;;;;5076040;28;20221;-77
2023/03/11 03:08:47;;;;;;;68.70;64.90;;;;;;;;;;5075900;28;20733;-77
2023/03/11 03:11:14;;;;;;;69.22;65.43;;;;;;;;;;5075363;28;20208;-78
2023/03/11 03:13:41;;;;;;;71.00;66.45;;;;;;;;;;5075836;28;20273;-77
2023/03/11 03:16:08;;;;;;;71.68;67.85;;;;;;;;;;5075777;28;20282;-78
2023/03/11 03:18:36;;;;;;;73.85;69.90;;;;;;;;;;5076141;28;20335;-78
2023/03/11 03:21:03;;;;;;;66.00;62.60;;;;;;;;;;5075955;28;20233;-78
2023/03/11 03:23:33;;;;;;;66.68;63.08;;;;;;;;;;5074841;28;20203;-77
2023/03/11 03:26:01;;;;;;;68.03;64.35;;;;;;;;;;5075466;28;20235;-77
2023/03/11 03:28:28;;;;;;;69.47;65.78;;;;;;;;;;5075923;28;20260;-78
2023/03/11 03:30:55;;;;;;;65.90;62.10;;;;;;;;;;5075869;28;20254;-77
2023/03/11 03:33:22;;;;;;;68.40;64.90;;;;;;;;;;5075154;28;20214;-77
2023/03/11 03:35:50;;;;;;;69.18;65.60;;;;;;;;;;5074916;28;20312;-78
2023/03/11 03:38:17;;;;;;;71.63;67.93;;;;;;;;;;5075606;28;20228;-77
2023/03/11 03:40:46;;;;;;;63.88;60.58;;;;;;;;;;5075643;28;20200;-78
2023/03/11 03:43:13;;;;;;;64.53;61.22;;;;;;;;;;5074961;28;20203;-77
2023/03/11 03:45:40;;;;;;;71.35;67.47;;;;;;;;;;5074842;28;20226;-77
2023/03/11 03:48:07;;;;;;;69.90;65.53;;;;;;;;;;5075176;28;20656;-77
2023/03/11 03:50:34;;;;;;;69.55;65.65;;;;;;;;;;5075336;28;20725;-77
2023/03/11 03:53:03;;;;;;;68.18;63.92;;;;;;;;;;5074693;28;20206;-77
2023/03/11 03:55:30;;;;;;;70.38;65.88;;;;;;;;;;5075505;28;20276;-77
2023/03/11 03:57:57;;;;;;;68.57;64.75;;;;;;;;;;5074625;28;20253;-77
2023/03/11 04:00:24;;;;;;;68.72;64.95;;;;;;;;;;5075188;28;20672;-77
2023/03/11 04:02:50;;;;;;;67.50;63.50;;;;;;;;;;5074765;28;20204;-77
2023/03/11 04:05:18;;;;;;;63.55;60.05;;;;;;;;;;5074932;28;20255;-78
2023/03/11 04:07:45;;;;;;;67.05;63.55;;;;;;;;;;5075084;28;20188;-77
2023/03/11 04:10:13;;;;;;;64.00;60.60;;;;;;;;;;5075065;28;20205;-77
2023/03/11 04:12:40;;;;;;;63.40;59.90;;;;;;;;;;5074104;28;20666;-77
2023/03/11 04:15:08;;;;;;;64.25;60.78;;;;;;;;;;5074018;28;20679;-77
2023/03/11 04:17:35;;;;;;;63.65;60.15;;;;;;;;;;5074842;28;20226;-77
2023/03/11 04:20:02;;;;;;;63.35;59.85;;;;;;;;;;5074869;28;20210;-77
2023/03/11 04:22:29;;;;;;;63.40;59.72;;;;;;;;;;5074195;28;20210;-77
2023/03/11 04:24:56;;;;;;;63.90;60.70;;;;;;;;;;5074594;28;20590;-77
2023/03/11 04:27:25;;;;;;;62.25;59.15;;;;;;;;;;5074559;28;20318;-77
2023/03/11 04:29:52;;;;;;;65.30;61.45;;;;;;;;;;5074680;28;20249;-77
2023/03/11 04:32:21;;;;;;;65.20;61.10;;;;;;;;;;5073895;28;20205;-77
2023/03/11 04:34:48;;;;;;;63.58;60.28;;;;;;;;;;5074620;28;20295;-77
2023/03/11 04:37:15;;;;;;;61.70;58.10;;;;;;;;;;5073579;28;20265;-77
2023/03/11 04:39:42;;;;;;;59.33;56.50;;;;;;;;;;5074065;28;20274;-77
2023/03/11 04:42:09;;;;;;;59.70;56.72;;;;;;;;;;5073978;28;20199;-77
2023/03/11 04:44:37;;;;;;;58.88;55.45;;;;;;;;;;5074604;28;20207;-77
2023/03/11 04:47:04;;;;;;;59.38;56.38;;;;;;;;;;5074053;28;20224;-77
2023/03/11 04:49:31;;;;;;;56.67;53.50;;;;;;;;;;5073434;28;20214;-77
2023/03/11 04:51:58;;;;;;;57.20;53.90;;;;;;;;;;5073666;28;20203;-77
2023/03/11 04:54:25;;;;;;;58.75;55.28;;;;;;;;;;5073997;28;20204;-77
2023/03/11 04:56:52;;;;;;;56.78;53.88;;;;;;;;;;5074057;28;20249;-77
2023/03/11 04:59:19;;;;;;;57.35;54.38;;;;;;;;;;5074127;28;20253;-77
2023/03/11 05:01:47;;;;;;;59.35;56.10;;;;;;;;;;5073599;28;20211;-77
2023/03/11 05:04:14;;;;;;;57.00;53.40;;;;;;;;;;5072833;28;20215;-77
2023/03/11 05:06:41;;;;;;;56.85;53.45;;;;;;;;;;5073728;28;20226;-77
2023/03/11 05:09:08;;;;;;;57.58;54.38;;;;;;;;;;5073634;28;20197;-77
2023/03/11 05:11:35;;;;;;;56.70;53.70;;;;;;;;;;5073620;28;20253;-77
2023/03/11 05:14:02;;;;;;;57.45;53.80;;;;;;;;;;5073966;28;20208;-77
2023/03/11 05:16:29;;;;;;;55.65;52.45;;;;;;;;;;5073163;28;20226;-77
2023/03/11 05:18:57;;;;;;;63.30;59.50;;;;;;;;;;5074199;28;20600;-77
2023/03/11 05:21:24;;;;;;;55.50;52.60;;;;;;;;;;5073131;28;20655;-77
2023/03/11 05:23:51;;;;;;;56.95;53.60;;;;;;;;;;5073609;28;20614;-77
2023/03/11 05:26:18;;;;;;;55.33;52.20;;;;;;;;;;5073327;28;20285;-77
2023/03/11 05:28:45;;;;;;;53.20;50.50;;;;;;;;;;5073796;28;20570;-76
2023/03/11 05:31:12;;;;;;;57.30;54.05;;;;;;;;;;5072716;28;20238;-77
2023/03/11 05:33:39;;;;;;;51.95;49.25;;;;;;;;;;5073071;28;20664;-77
2023/03/11 05:36:09;;;;;;;52.03;49.15;;;;;;;;;;5073237;28;20746;-77
2023/03/11 05:38:36;;;;;;;51.40;48.60;;;;;;;;;;5073678;28;20561;-77
2023/03/11 05:41:03;;;;;;;47.55;44.92;;;;;;;;;;5072997;28;20261;-77
2023/03/11 05:43:30;;;;;;;52.47;49.55;;;;;;;;;;5073037;28;20206;-77
2023/03/11 05:45:57;;;;;;;48.83;46.33;;;;;;;;;;5073419;28;20280;-76
2023/03/11 05:48:24;;;;;;;47.65;45.10;;;;;;;;;;5073552;28;20250;-76
2023/03/11 05:50:51;;;;;;;46.95;44.58;;;;;;;;;;5073568;28;20207;-77
2023/03/11 05:53:19;;;;;;;45.05;42.35;;;;;;;;;;5072973;28;20257;-77
2023/03/11 05:55:46;;;;;;;47.40;44.83;;;;;;;;;;5072825;28;20226;-76
2023/03/11 05:58:13;;;;;;;45.38;42.90;;;;;;;;;;5073312;28;20207;-76
2023/03/11 06:00:40;;;;;;;44.13;41.33;;;;;;;;;;5073338;28;20204;-74
2023/03/11 06:03:07;;;;;;;42.20;39.90;;;;;;;;;;5072844;28;20262;-74
2023/03/11 06:05:34;;;;;;;41.05;38.95;;;;;;;;;;5072788;28;20695;-74
2023/03/11 06:08:01;;;;;;;41.25;38.95;;;;;;;;;;5073571;28;20652;-74
2023/03/11 06:10:30;;;;;;;40.35;38.05;;;;;;;;;;5073037;28;20610;-73
2023/03/11 06:12:57;;;;;;;40.17;37.45;;;;;;;;;;5072150;28;20752;-74
2023/03/11 06:15:24;;;;;;;40.75;38.08;;;;;;;;;;5073546;28;20569;-74
2023/03/11 06:17:50;;;;;;;38.88;36.65;;;;;;;;;;5076856;28;20561;-74
2023/03/11 06:20:18;;;;;;;46.08;43.67;;;;;;;;;;5076966;28;20659;-74
2023/03/11 06:22:45;;;;;;;41.63;39.45;;;;;;;;;;5076308;28;20209;-74
2023/03/11 06:25:12;;;;;;;44.58;42.20;;;;;;;;;;5075997;28;20212;-74
2023/03/11 06:27:40;;;;;;;42.67;40.20;;;;;;;;;;5076811;28;20199;-74
2023/03/11 06:30:09;;;;;;;37.58;35.58;;;;;;;;;;5076789;28;20248;-74
2023/03/11 06:32:36;;;;;;;41.53;39.22;;;;;;;;;;5075806;28;20656;-74
2023/03/11 06:35:03;;;;;;;40.80;38.53;;;;;;;;;;5076428;28;20647;-74
2023/03/11 06:37:30;;;;;;;42.33;39.70;;;;;;;;;;5076478;28;20215;-74
2023/03/11 06:39:57;;;;;;;42.45;39.83;;;;;;;;;;5076647;28;20214;-74
2023/03/11 06:42:24;;;;;;;39.53;37.45;;;;;;;;;;5075881;28;20199;-74
2023/03/11 06:44:52;;;;;;;41.75;38.75;;;;;;;;;;5076273;28;20544;-74
2023/03/11 06:47:19;;;;;;;41.72;39.30;;;;;;;;;;5075583;28;20223;-74
2023/03/11 06:49:46;;;;;;;44.30;41.80;;;;;;;;;;5076523;28;20203;-74
2023/03/11 06:52:13;;;;;;;39.13;36.95;;;;;;;;;;5075519;28;20294;-74
2023/03/11 06:54:40;;;;;;;41.60;39.17;;;;;;;;;;5076420;28;20336;-75
2023/03/11 06:57:07;;;;;;;43.20;40.58;;;;;;;;;;5075645;28;20227;-74
2023/03/11 06:59:34;;;;;;;42.00;39.80;;;;;;;;;;5076362;28;20210;-74
2023/03/11 07:02:02;;;;;;;39.75;37.35;;;;;;;;;;5075533;28;20648;-75
2023/03/11 07:04:30;;;;;;;41.30;38.75;;;;;;;;;;5076244;28;20209;-74
2023/03/11 07:06:57;;;;;;;42.83;40.47;;;;;;;;;;5075879;28;20227;-75
2023/03/11 07:09:24;;;;;;;42.50;39.33;;;;;;;;;;5076077;28;20249;-74
2023/03/11 07:11:51;;;;;;;40.40;37.78;;;;;;;;;;5075278;28;20681;-74
2023/03/11 07:14:18;;;;;;;38.42;36.05;;;;;;;;;;5075453;28;20265;-75
2023/03/11 07:16:46;;;;;;;36.72;34.83;;;;;;;;;;5076001;28;20580;-75
2023/03/11 07:19:14;;;;;;;37.30;35.30;;;;;;;;;;5075990;28;20221;-74
2023/03/11 07:21:42;;;;;;;37.50;35.40;;;;;;;;;;5075418;28;20225;-75
2023/03/11 07:24:09;;;;;;;37.00;34.95;;;;;;;;;;5075802;28;20199;-74
2023/03/11 07:26:36;;;;;;;36.75;34.75;;;;;;;;;;5074638;28;20268;-74
2023/03/11 07:29:03;;;;;;;37.78;35.30;;;;;;;;;;5075871;28;20203;-74
2023/03/11 07:31:31;;;;;;;36.22;34.28;;;;;;;;;;5075171;28;20214;-75
2023/03/11 07:33:59;;;;;;;36.60;34.22;;;;;;;;;;5075450;28;20262;-75
2023/03/11 07:36:28;;;;;;;35.38;33.38;;;;;;;;;;5075249;28;20630;-74
2023/03/11 07:38:57;;;;;;;36.70;34.60;;;;;;;;;;5075379;28;20560;-74
2023/03/11 07:41:24;;;;;;;37.47;35.58;;;;;;;;;;5074693;28;20205;-75
2023/03/11 07:43:54;;;;;;;35.65;33.50;;;;;;;;;;5075555;28;20261;-74
2023/03/11 07:46:21;;;;;;;32.80;30.98;;;;;;;;;;5075328;28;20241;-74
2023/03/11 07:48:49;;;;;;;34.13;32.28;;;;;;;;;;5075126;28;20661;-74
2023/03/11 07:51:17;;;;;;;33.85;31.88;;;;;;;;;;5074473;28;20203;-74
2023/03/11 07:53:45;;;;;;;33.67;32.00;;;;;;;;;;5074946;28;20669;-74
2023/03/11 07:56:13;;;;;;;29.95;28.35;;;;;;;;;;5075174;28;20250;-75
2023/03/11 07:58:40;;;;;;;29.52;27.52;;;;;;;;;;5074934;28;20225;-74
2023/03/11 08:01:09;;;;;;;30.55;28.48;;;;;;;;;;5074149;28;20671;-75
2023/03/11 08:03:36;;;;;;;29.63;28.02;;;;;;;;;;5074196;28;20255;-74
2023/03/11 08:06:04;;;;;;;29.80;28.20;;;;;;;;;;5067016;28;20218;-74
2023/03/11 08:08:31;;;;;;;28.23;26.83;;;;;;;;;;5054588;28;20273;-74
2023/03/11 08:11:03;;;;;;;30.42;28.27;;;;;;;;;;5054715;28;20277;-74
2023/03/11 08:13:30;;;;;;;30.88;28.88;;;;;;;;;;5054160;28;20668;-74
2023/03/11 08:15:57;;;;;;;27.52;26.13;;;;;;;;;;5053881;28;20623;-74
2023/03/11 08:18:23;;;;;;;30.50;29.00;;;;;;;;;;5054673;28;20220;-76
2023/03/11 08:20:50;;;;;;;27.67;26.17;;;;;;;;;;5054622;28;20262;-75
2023/03/11 08:23:17;;;;;;;26.45;24.83;;;;;;;;;;5054070;28;20265;-74
2023/03/11 08:25:44;;;;;;;24.83;23.63;;;;;;;;;;5053560;28;20305;-74
2023/03/11 08:28:13;;;;;;;23.90;22.67;;;;;;;;;;5054281;28;20207;-74
2023/03/11 08:30:40;;;;;;;27.75;25.67;;;;;;;;;;5054546;28;20222;-74
2023/03/11 08:33:08;;;;;;;26.98;25.20;;;;;;;;;;5053277;28;20208;-74
2023/03/11 08:35:35;;;;;;;25.85;24.65;;;;;;;;;;5054285;28;20573;-75
2023/03/11 08:38:02;;;;;;;26.25;24.85;;;;;;;;;;5053639;28;20249;-74
2023/03/11 08:40:29;;;;;;;26.13;24.73;;;;;;;;;;5053857;28;20204;-80
2023/03/11 08:42:56;;;;;;;26.25;24.63;;;;;;;;;;5068060;28;20258;-82
2023/03/11 08:45:25;;;;;;;26.33;24.70;;;;;;;;;;5077260;28;20224;-79
2023/03/11 08:47:52;;;;;;;25.95;24.65;;;;;;;;;;5067882;28;20271;-81
2023/03/11 08:50:19;;;;;;;26.02;24.55;;;;;;;;;;5056641;28;20261;-80
2023/03/11 08:52:46;;;;;;;26.70;24.30;;;;;;;;;;5056357;28;20203;-80
2023/03/11 08:55:17;;;;;;;26.88;25.45;;;;;;;;;;5054802;28;20200;-76
2023/03/11 08:57:44;;;;;;;26.38;24.67;;;;;;;;;;5053383;28;20221;-76
2023/03/11 09:00:13;;;;;;;24.45;23.25;;;;;;;;;;5054257;28;20207;-75
2023/03/11 09:02:42;;;;;;;23.25;22.15;;;;;;;;;;5053381;28;20257;-76
2023/03/11 09:05:09;;;;;;;26.80;25.27;;;;;;;;;;5057276;28;20283;-76
2023/03/11 09:07:36;;;;;;;25.45;23.80;;;;;;;;;;5065681;28;20195;-77
2023/03/11 09:10:04;;;;;;;25.05;23.33;;;;;;;;;;5057398;28;20722;-76
2023/03/11 09:12:31;;;;;;;24.63;23.42;;;;;;;;;;5053048;28;20668;-76
2023/03/11 09:14:58;;;;;;;25.38;23.92;;;;;;;;;;5056531;28;20199;-76
2023/03/11 09:17:25;;;;;;;25.27;23.67;;;;;;;;;;5054164;28;20255;-76
2023/03/11 09:19:53;;;;;;;27.70;26.08;;;;;;;;;;5053718;28;20261;-76
2023/03/11 09:22:20;;;;;;;24.95;23.73;;;;;;;;;;5072367;28;20206;-76
2023/03/11 09:24:47;;;;;;;25.30;23.77;;;;;;;;;;5069704;28;20268;-76
2023/03/11 09:27:14;;;;;;;26.35;24.77;;;;;;;;;;5064666;28;20269;-76
2023/03/11 09:29:41;;;;;;;25.17;23.77;;;;;;;;;;5073552;28;20195;-76
2023/03/11 09:32:08;;;;;;;27.60;25.70;;;;;;;;;;5073124;28;20210;-76
2023/03/11 09:34:35;;;;;;;25.77;24.27;;;;;;;;;;5074241;28;20252;-76
2023/03/11 09:37:04;;;;;;;24.30;22.90;;;;;;;;;;5073679;28;20223;-79
2023/03/11 09:39:31;;;;;;;27.23;25.48;;;;;;;;;;5074323;28;20215;-79
2023/03/11 09:41:58;;;;;;;25.40;23.80;;;;;;;;;;5075566;28;20207;-80
2023/03/11 09:44:28;;;;;;;23.60;22.15;;;;;;;;;;5076057;28;20225;-79
2023/03/11 09:47:14;;;;;;;25.60;23.92;;;;;;;;;;5073800;28;20227;-78
2023/03/11 09:49:53;;;;;;;24.83;23.08;;;;;;;;;;5075119;28;20196;-77
2023/03/11 09:52:25;;;;;;;24.85;23.40;;;;;;;;;;5077240;28;20256;-78
2023/03/11 09:54:53;;;;;;;23.42;22.15;;;;;;;;;;5077929;28;20216;-77
2023/03/11 09:57:23;;;;;;;24.73;23.20;;;;;;;;;;5080475;28;20703;-77
2023/03/11 09:59:50;;;;;;;24.15;22.75;;;;;;;;;;5077651;28;20269;-77
2023/03/11 10:02:19;;;;;;;24.08;22.77;;;;;;;;;;5077137;28;20235;-76
2023/03/11 10:04:50;;;;;;;22.33;21.25;;;;;;;;;;5077298;28;20235;-77
2023/03/11 10:07:20;;;;;;;23.10;21.80;;;;;;;;;;5076705;28;20219;-77
2023/03/11 10:09:51;;;;;;;23.65;22.15;;;;;;;;;;5077467;28;20188;-77
2023/03/11 10:12:24;;;;;;;24.52;23.02;;;;;;;;;;5076672;28;20187;-77
2023/03/11 10:14:55;;;;;;;23.65;22.35;;;;;;;;;;5077337;28;20190;-76
2023/03/11 10:17:32;;;;;;;24.25;22.95;;;;;;;;;;5076234;28;20280;-77
2023/03/11 10:20:04;;;;;;;25.48;23.58;;;;;;;;;;5076756;28;20589;-76
2023/03/11 10:22:33;;;;;;;23.35;21.75;;;;;;;;;;5076505;28;20194;-76
2023/03/11 10:25:06;;;;;;;23.65;22.50;;;;;;;;;;5077054;28;20215;-76
2023/03/11 10:27:36;;;;;;;23.70;22.52;;;;;;;;;;5077070;28;20184;-76
2023/03/11 10:30:06;;;;;;;23.75;21.75;;;;;;;;;;5076674;28;20199;-76
2023/03/11 10:32:38;;;;;;;22.90;21.50;;;;;;;;;;5076004;28;20667;-76
2023/03/11 10:35:07;;;;;;;23.52;22.15;;;;;;;;;;5076067;28;20572;-76
2023/03/11 10:37:35;;;;;;;22.35;21.05;;;;;;;;;;5076692;28;20201;-76
2023/03/11 10:40:11;;;;;;;23.15;21.95;;;;;;;;;;5076750;28;20273;-76
2023/03/11 10:42:39;;;;;;;24.13;22.52;;;;;;;;;;5076080;28;20187;-76
2023/03/11 10:45:12;;;;;;;22.60;21.30;;;;;;;;;;5076348;28;20207;-76
2023/03/11 10:47:39;;;;;;;22.38;21.15;;;;;;;;;;5076014;28;20195;-76
2023/03/11 10:50:07;;;;;;;23.73;22.42;;;;;;;;;;5076386;28;20206;-76
2023/03/11 10:52:42;;;;;;;24.73;23.17;;;;;;;;;;5076000;28;20206;-76
2023/03/11 10:55:18;;;;;;;21.58;20.48;;;;;;;;;;5076727;28;20201;-77
2023/03/11 10:57:46;;;;;;;34.08;30.63;;;;;;;;;;5076612;28;20188;-77
2023/03/11 11:00:29;;;;;;;23.65;22.05;;;;;;;;;;5077179;28;20572;-77
2023/03/11 11:02:58;;;;;;;23.58;22.08;;;;;;;;;;5074852;28;20239;-78
2023/03/11 11:05:28;;;;;;;29.63;22.27;;;;;;;;;;5075290;28;20259;-77
2023/03/11 11:08:03;;;;;;;23.92;22.08;;;;;;;;;;5075961;28;20725;-77
2023/03/11 11:10:32;;;;;;;21.95;20.70;;;;;;;;;;5075967;28;20709;-77
2023/03/11 11:13:01;;;;;;;22.52;20.65;;;;;;;;;;5074857;28;20211;-77
2023/03/11 11:15:30;;;;;;;22.25;20.95;;;;;;;;;;5076022;28;20349;-77
2023/03/11 11:17:58;;;;;;;22.83;21.63;;;;;;;;;;5075769;28;20539;-77
2023/03/11 11:20:26;;;;;;;22.58;21.15;;;;;;;;;;5076030;28;20219;-76
2023/03/11 11:22:53;;;;;;;23.55;22.33;;;;;;;;;;5075114;28;20664;-76
2023/03/11 11:25:25;;;;;;;21.75;20.65;;;;;;;;;;5075657;28;20327;-77
2023/03/11 11:27:57;;;;;;;20.92;19.80;;;;;;;;;;5076098;28;20260;-77
2023/03/11 11:30:25;;;;;;;22.30;20.52;;;;;;;;;;5075931;28;20229;-77
2023/03/11 11:32:52;;;;;;;20.90;19.70;;;;;;;;;;5074609;28;20215;-78
2023/03/11 11:35:21;;;;;;;20.40;18.95;;;;;;;;;;5075838;28;20211;-78
2023/03/11 11:37:49;;;;;;;21.00;19.80;;;;;;;;;;5075829;28;20257;-78
2023/03/11 11:40:19;;;;;;;21.10;19.85;;;;;;;;;;5075460;28;20222;-77
2023/03/11 11:42:47;;;;;;;21.65;20.55;;;;;;;;;;5074844;28;20640;-77
2023/03/11 11:45:17;;;;;;;23.17;21.58;;;;;;;;;;5075361;28;20208;-78
2023/03/11 11:47:47;;;;;;;21.67;19.77;;;;;;;;;;5075133;28;20256;-77
2023/03/11 11:50:16;;;;;;;21.02;19.92;;;;;;;;;;5075698;28;20214;-78
2023/03/11 11:52:44;;;;;;;20.75;19.38;;;;;;;;;;5074749;28;20737;-78
2023/03/11 11:55:18;;;;;;;21.05;19.75;;;;;;;;;;5074979;28;20668;-78
2023/03/11 11:57:45;;;;;;;21.58;20.27;;;;;;;;;;5074682;28;20676;-78
2023/03/11 12:00:19;;;;;;;20.23;19.10;;;;;;;;;;5075410;28;20623;-78
2023/03/11 12:02:54;;;;;;;23.48;21.30;;;;;;;;;;5075188;28;20263;-80
2023/03/11 12:05:25;;;;;;;21.75;19.90;;;;;;;;;;5075378;28;20758;-78
2023/03/11 12:07:56;;;;;;;21.60;20.13;;;;;;;;;;5074378;28;20210;-77
2023/03/11 12:10:25;;;;;;;21.65;20.00;;;;;;;;;;5075100;28;20183;-78
2023/03/11 12:13:16;;;;;;;21.13;19.83;;;;;;;;;;5074457;28;20249;-77
2023/03/11 12:15:48;;;;;;;22.33;21.08;;;;;;;;;;5059296;28;20223;-77
2023/03/11 12:18:18;;;;;;;22.92;21.30;;;;;;;;;;5074439;28;20568;-77
2023/03/11 12:20:46;;;;;;;23.08;21.75;;;;;;;;;;5074764;28;20217;-77
2023/03/11 12:23:20;;;;;;;23.30;21.75;;;;;;;;;;5073965;28;20207;-77
2023/03/11 12:25:58;;;;;;;21.88;20.35;;;;;;;;;;5074175;28;20238;-77
2023/03/11 12:28:30;;;;;;;22.67;21.17;;;;;;;;;;5074784;28;20321;-77
2023/03/11 12:31:00;;;;;;;22.92;21.63;;;;;;;;;;5073888;28;20257;-77
2023/03/11 12:33:31;;;;;;;23.05;21.35;;;;;;;;;;5074057;28;20257;-77
2023/03/11 12:35:59;;;;;;;23.17;21.50;;;;;;;;;;5074331;28;20219;-77
2023/03/11 12:38:32;;;;;;;21.98;20.67;;;;;;;;;;5074497;28;20208;-77
2023/03/11 12:41:06;;;;;;;21.42;20.20;;;;;;;;;;5073316;28;20226;-77
2023/03/11 12:43:51;;;;;;;21.80;20.60;;;;;;;;;;5073540;28;20257;-76
2023/03/11 12:46:20;;;;;;;22.10;20.73;;;;;;;;;;5074015;28;20707;-77
2023/03/11 12:48:49;;;;;;;23.98;22.58;;;;;;;;;;5073705;28;20675;-76
2023/03/11 12:51:38;;;;;;;22.83;21.33;;;;;;;;;;5074060;28;20208;-77
2023/03/11 12:54:26;;;;;;;21.58;20.38;;;;;;;;;;5074177;28;20214;-78
2023/03/11 12:56:55;;;;;;;23.67;22.02;;;;;;;;;;5069067;28;20627;-77
2023/03/11 12:59:35;;;;;;;22.23;21.02;;;;;;;;;;5074257;28;20274;-79
2023/03/11 13:02:12;;;;;;;22.40;21.20;;;;;;;;;;5074427;28;20221;-79
2023/03/11 13:04:56;;;;;;;22.33;20.98;;;;;;;;;;5075232;28;20207;-79
2023/03/11 13:07:47;;;;;;;23.02;21.73;;;;;;;;;;5074765;28;20223;-78
2023/03/11 13:10:16;;;;;;;22.27;20.98;;;;;;;;;;5074603;28;20183;-79
2023/03/11 13:12:44;;;;;;;22.35;20.95;;;;;;;;;;5074129;28;20210;-79
2023/03/11 13:15:27;;;;;;;21.38;20.10;;;;;;;;;;5074458;28;20200;-79
2023/03/11 13:18:00;;;;;;;21.38;20.08;;;;;;;;;;5074499;28;20180;-78
2023/03/11 13:20:54;;;;;;;23.00;21.10;;;;;;;;;;5074410;28;20223;-79
2023/03/11 13:23:23;;;;;;;22.00;20.80;;;;;;;;;;5060431;28;20207;-78
2023/03/11 13:26:11;;;;;;;23.02;21.63;;;;;;;;;;5074127;28;20769;-79
2023/03/11 13:28:46;;;;;;;21.65;20.45;;;;;;;;;;5049122;28;20208;-79
2023/03/11 13:31:18;;;;;;;24.73;23.27;;;;;;;;;;5074687;28;20623;-79
2023/03/11 13:33:51;;;;;;;23.17;21.88;;;;;;;;;;5074480;28;20550;-79
2023/03/11 13:36:24;;;;;;;22.77;21.48;;;;;;;;;;5074508;28;20273;-79
2023/03/11 13:39:01;;;;;;;21.17;20.08;;;;;;;;;;5074081;28;20211;-79
2023/03/11 13:41:30;;;;;;;22.45;21.25;;;;;;;;;;5073499;28;20207;-78
2023/03/11 13:44:00;;;;;;;22.52;21.25;;;;;;;;;;5073977;28;20209;-78
2023/03/11 13:46:29;;;;;;;23.05;21.55;;;;;;;;;;5073949;28;20236;-78
2023/03/11 13:49:03;;;;;;;23.73;22.42;;;;;;;;;;5073633;28;20211;-78
2023/03/11 13:51:33;;;;;;;23.63;22.20;;;;;;;;;;5074383;28;20245;-79
2023/03/11 13:54:02;;;;;;;22.08;20.88;;;;;;;;;;5073895;28;20877;-77
2023/03/11 13:56:31;;;;;;;22.48;20.73;;;;;;;;;;5073606;28;20277;-77
2023/03/11 13:59:13;;;;;;;20.95;19.75;;;;;;;;;;5073817;28;20204;-78
2023/03/11 14:01:41;;;;;;;22.20;20.75;;;;;;;;;;5075646;28;20557;-81
2023/03/11 14:04:12;;;;;;;21.70;20.25;;;;;;;;;;5076348;28;20212;-82
2023/03/11 14:06:39;;;;;;;21.70;20.40;;;;;;;;;;5074212;28;20220;-75
2023/03/11 14:09:06;;;;;;;22.80;21.10;;;;;;;;;;5062317;28;20202;-76
2023/03/11 14:11:33;;;;;;;22.25;20.85;;;;;;;;;;5052558;28;20200;-75
2023/03/11 14:14:00;;;;;;;21.58;20.38;;;;;;;;;;5052152;28;20200;-75
2023/03/11 14:16:32;;;;;;;22.33;21.02;;;;;;;;;;5051994;28;20258;-75
2023/03/11 14:19:02;;;;;;;22.95;21.52;;;;;;;;;;5053010;28;20732;-75
2023/03/11 14:21:31;;;;;;;22.20;20.80;;;;;;;;;;5052189;28;20260;-75
2023/03/11 14:23:59;;;;;;;21.67;19.67;;;;;;;;;;5052984;28;20310;-75
2023/03/11 14:26:28;;;;;;;21.98;20.55;;;;;;;;;;5052536;28;20710;-75